createdAt,value
2023-10-08T00:02:27.778Z,5.05
2023-10-08T00:04:55.782Z,4.00
2023-10-08T00:07:24.956Z,4.60
2023-10-08T00:09:53.913Z,3.20
2023-10-08T00:12:21.962Z,5.17
2023-10-08T00:14:54.821Z,5.65
2023-10-08T00:17:22.562Z,3.75
2023-10-08T00:19:54.231Z,5.07
2023-10-08T00:22:23.416Z,5.85
2023-10-08T00:24:58.643Z,4.10
2023-10-08T00:27:27.106Z,4.95
2023-10-08T00:29:54.833Z,5.18
2023-10-08T00:32:23.025Z,5.63
2023-10-08T00:34:52.052Z,4.75
2023-10-08T00:37:19.612Z,4.13
2023-10-08T00:39:47.169Z,5.15
2023-10-08T00:42:14.933Z,4.32
2023-10-08T00:44:49.130Z,4.63
2023-10-08T00:47:19.442Z,5.07
2023-10-08T00:49:55.495Z,4.67
2023-10-08T00:52:39.505Z,3.45
2023-10-08T00:55:15.818Z,4.15
2023-10-08T00:57:48.772Z,5.32
2023-10-08T01:00:24.132Z,4.63
2023-10-08T01:03:01.438Z,4.03
2023-10-08T01:05:43.435Z,5.10
2023-10-08T01:08:15.837Z,3.38
2023-10-08T01:10:47.973Z,5.22
2023-10-08T01:13:20.557Z,4.18
2023-10-08T01:15:51.494Z,3.63
2023-10-08T01:18:26.679Z,3.63
2023-10-08T01:20:54.430Z,3.85
2023-10-08T01:23:27.837Z,4.70
2023-10-08T01:26:03.067Z,5.00
2023-10-08T01:28:31.504Z,3.67
2023-10-08T01:31:01.618Z,3.35
2023-10-08T01:33:30.243Z,3.33
2023-10-08T01:36:03.023Z,4.90
2023-10-08T01:38:33.616Z,5.47
2023-10-08T01:41:06.800Z,4.07
2023-10-08T01:43:34.425Z,4.95
2023-10-08T01:46:04.671Z,4.30
2023-10-08T01:48:38.792Z,3.72
2023-10-08T01:51:10.305Z,3.58
2023-10-08T01:53:39.646Z,3.43
2023-10-08T01:56:07.441Z,7.47
2023-10-08T01:58:35.316Z,3.30
2023-10-08T02:01:06.343Z,3.97
2023-10-08T02:03:35.067Z,3.15
2023-10-08T02:06:07.100Z,6.20
2023-10-08T02:08:34.709Z,3.33
2023-10-08T02:11:03.723Z,4.55
2023-10-08T02:13:31.586Z,3.42
2023-10-08T02:15:59.432Z,3.72
2023-10-08T02:18:27.179Z,4.83
2023-10-08T02:20:54.923Z,3.25
2023-10-08T02:23:22.694Z,3.33
2023-10-08T02:25:50.332Z,3.55
2023-10-08T02:28:21.602Z,6.45
2023-10-08T02:30:49.386Z,6.00
2023-10-08T02:33:17.463Z,3.53
2023-10-08T02:35:46.173Z,4.55
2023-10-08T02:38:14.770Z,4.72
2023-10-08T02:40:46.026Z,4.20
2023-10-08T02:43:15.741Z,4.27
2023-10-08T02:45:50.261Z,3.63
2023-10-08T02:48:19.166Z,3.92
2023-10-08T02:50:47.535Z,5.03
2023-10-08T02:53:19.554Z,3.95
2023-10-08T02:55:47.850Z,4.10
2023-10-08T02:58:16.700Z,2.85
2023-10-08T03:00:47.998Z,4.13
2023-10-08T03:03:17.779Z,6.07
2023-10-08T03:05:47.321Z,4.82
2023-10-08T03:08:20.610Z,3.73
2023-10-08T03:10:49.793Z,3.58
2023-10-08T03:13:17.746Z,4.93
2023-10-08T03:15:59.406Z,4.10
2023-10-08T03:18:27.250Z,4.78
2023-10-08T03:20:54.938Z,3.70
2023-10-08T03:23:26.893Z,3.50
2023-10-08T03:25:58.279Z,3.50
2023-10-08T03:28:28.915Z,2.88
2023-10-08T03:31:05.177Z,3.53
2023-10-08T03:33:35.498Z,4.97
2023-10-08T03:36:10.237Z,3.58
2023-10-08T03:38:47.075Z,3.28
2023-10-08T03:41:19.162Z,3.80
2023-10-08T03:43:54.215Z,3.35
2023-10-08T03:46:25.398Z,7.80
2023-10-08T03:48:53.355Z,3.63
2023-10-08T03:51:22.392Z,4.40
2023-10-08T03:54:16.536Z,6.75
2023-10-08T03:56:47.726Z,4.53
2023-10-08T03:59:15.831Z,4.93
2023-10-08T04:01:45.263Z,4.03
2023-10-08T04:04:15.390Z,4.47
2023-10-08T04:06:49.631Z,6.00
2023-10-08T04:09:26.489Z,3.15
2023-10-08T04:11:56.491Z,3.70
2023-10-08T04:14:26.918Z,3.83
2023-10-08T04:16:55.995Z,4.05
2023-10-08T04:19:28.124Z,4.03
2023-10-08T04:21:56.170Z,3.28
2023-10-08T04:24:29.589Z,6.43
2023-10-08T04:27:03.691Z,4.75
2023-10-08T04:29:33.601Z,5.00
2023-10-08T04:32:13.473Z,3.45
2023-10-08T04:34:46.569Z,4.78
2023-10-08T04:37:14.319Z,3.67
2023-10-08T04:39:48.043Z,4.85
2023-10-08T04:42:16.141Z,4.80
2023-10-08T04:44:44.049Z,3.53
2023-10-08T04:47:32.785Z,3.55
2023-10-08T04:50:00.590Z,4.97
2023-10-08T04:52:29.094Z,3.25
2023-10-08T04:54:57.591Z,5.15
2023-10-08T04:57:27.064Z,3.83
2023-10-08T04:59:58.924Z,6.53
2023-10-08T05:02:42.002Z,5.00
2023-10-08T05:05:23.873Z,5.15
2023-10-08T05:08:18.610Z,3.60
2023-10-08T05:11:03.682Z,4.05
2023-10-08T05:13:46.328Z,5.15
2023-10-08T05:16:30.806Z,4.57
2023-10-08T05:19:15.455Z,3.45
2023-10-08T05:21:52.774Z,4.43
2023-10-08T05:24:29.015Z,3.53
2023-10-08T05:27:20.786Z,4.45
2023-10-08T05:30:14.671Z,3.90
2023-10-08T05:33:11.669Z,4.03
2023-10-08T05:35:57.690Z,5.47
2023-10-08T05:38:39.501Z,4.93
2023-10-08T05:41:13.766Z,4.97
2023-10-08T05:43:58.630Z,4.03
2023-10-08T05:46:48.426Z,5.88
2023-10-08T05:49:33.637Z,4.03
2023-10-08T05:52:26.016Z,6.30
2023-10-08T05:55:16.721Z,5.15
2023-10-08T05:57:53.270Z,4.77
2023-10-08T06:00:37.582Z,3.60
2023-10-08T06:03:12.933Z,4.00
2023-10-08T06:05:47.275Z,5.03
2023-10-08T06:08:22.502Z,4.18
2023-10-08T06:10:57.808Z,3.97
2023-10-08T06:13:46.369Z,5.13
2023-10-08T06:16:31.956Z,6.07
2023-10-08T06:19:00.954Z,4.03
2023-10-08T06:21:28.083Z,4.30
2023-10-08T06:23:57.737Z,4.73
2023-10-08T06:26:26.532Z,5.07
2023-10-08T06:28:59.855Z,4.47
2023-10-08T06:31:29.117Z,7.57
2023-10-08T06:33:58.563Z,5.25
2023-10-08T06:36:26.559Z,4.77
2023-10-08T06:38:54.241Z,6.28
2023-10-08T06:41:48.433Z,5.32
2023-10-08T06:44:16.970Z,4.55
2023-10-08T06:46:44.576Z,3.60
2023-10-08T06:49:16.820Z,3.90
2023-10-08T06:51:45.378Z,3.92
2023-10-08T06:54:15.766Z,4.47
2023-10-08T06:56:47.872Z,4.30
2023-10-08T06:59:16.048Z,4.80
2023-10-08T07:01:47.230Z,4.83
2023-10-08T07:04:15.701Z,3.95
2023-10-08T07:06:44.298Z,3.83
2023-10-08T07:09:23.653Z,4.65
2023-10-08T07:11:56.192Z,3.40
2023-10-08T07:14:27.738Z,3.77
2023-10-08T07:16:56.177Z,4.22
2023-10-08T07:19:33.839Z,3.67
2023-10-08T07:22:07.417Z,3.63
2023-10-08T07:24:38.198Z,4.22
2023-10-08T07:27:10.144Z,6.47
2023-10-08T07:29:38.226Z,4.10
2023-10-08T07:32:11.144Z,5.72
2023-10-08T07:34:39.007Z,4.50
2023-10-08T07:37:07.958Z,5.63
2023-10-08T07:39:36.634Z,4.30
2023-10-08T07:42:06.456Z,3.38
2023-10-08T07:44:37.216Z,3.88
2023-10-08T07:47:11.314Z,3.97
2023-10-08T07:49:39.031Z,4.97
2023-10-08T07:52:07.052Z,3.40
2023-10-08T07:54:35.643Z,3.38
2023-10-08T07:57:11.267Z,3.92
2023-10-08T07:59:42.770Z,3.05
2023-10-08T08:02:12.349Z,4.43
2023-10-08T08:04:41.121Z,4.13
2023-10-08T08:07:08.890Z,3.15
2023-10-08T08:09:39.272Z,4.07
2023-10-08T08:12:09.933Z,4.30
2023-10-08T08:14:39.558Z,3.92
2023-10-08T08:17:15.409Z,3.60
2023-10-08T08:19:43.232Z,3.47
2023-10-08T08:22:16.375Z,4.57
2023-10-08T08:24:46.369Z,3.22
2023-10-08T08:27:25.348Z,2.85
2023-10-08T08:29:57.070Z,2.90
2023-10-08T08:32:26.367Z,2.90
2023-10-08T08:34:54.332Z,4.65
2023-10-08T08:37:23.597Z,3.03
2023-10-08T08:42:23.280Z,3.90
2023-10-08T08:44:52.553Z,3.28
2023-10-08T08:47:21.911Z,3.25
2023-10-08T08:49:56.252Z,3.35
2023-10-08T08:52:23.984Z,3.47
2023-10-08T08:54:52.539Z,3.63
2023-10-08T08:57:21.342Z,3.40
2023-10-08T08:59:53.963Z,4.30
2023-10-08T09:02:21.876Z,3.90
2023-10-08T09:04:50.236Z,3.95
2023-10-08T09:07:23.569Z,4.27
2023-10-08T09:09:51.657Z,3.58
2023-10-08T09:12:19.408Z,3.40
2023-10-08T09:14:49.217Z,3.20
2023-10-08T09:17:18.785Z,3.63
2023-10-08T09:19:47.488Z,3.43
2023-10-08T09:22:16.356Z,3.00
2023-10-08T09:24:45.316Z,3.50
2023-10-08T09:27:15.288Z,2.97
2023-10-08T09:29:43.463Z,3.20
2023-10-08T09:32:11.977Z,3.67
2023-10-08T09:34:39.567Z,3.72
2023-10-08T09:37:08.938Z,3.33
2023-10-08T09:39:36.536Z,4.55
2023-10-08T09:42:08.418Z,3.20
2023-10-08T09:44:36.409Z,3.00
2023-10-08T09:47:05.610Z,4.55
2023-10-08T09:49:34.253Z,3.80
2023-10-08T09:52:03.532Z,4.38
2023-10-08T09:54:34.710Z,2.80
2023-10-08T09:57:05.049Z,3.27
2023-10-08T09:59:34.492Z,3.97
2023-10-08T10:02:04.059Z,3.55
2023-10-08T10:04:33.319Z,3.80
2023-10-08T10:07:10.336Z,3.63
2023-10-08T10:09:38.243Z,3.60
2023-10-08T10:12:10.890Z,3.47
2023-10-08T10:14:46.829Z,3.30
2023-10-08T10:17:32.494Z,2.90
2023-10-08T10:20:15.175Z,4.03
2023-10-08T10:22:45.480Z,3.10
2023-10-08T10:25:18.161Z,3.28
2023-10-08T10:28:00.837Z,2.90
2023-10-08T10:30:29.770Z,4.22
2023-10-08T10:33:01.146Z,3.42
2023-10-08T10:35:29.650Z,3.50
2023-10-08T10:38:04.729Z,3.38
2023-10-08T10:40:40.450Z,3.58
2023-10-08T10:43:10.405Z,2.95
2023-10-08T10:45:41.611Z,3.78
2023-10-08T10:48:22.452Z,3.30
2023-10-08T10:51:09.661Z,2.78
2023-10-08T10:53:45.646Z,2.83
2023-10-08T10:56:19.525Z,3.80
2023-10-08T10:58:46.812Z,3.45
2023-10-08T11:01:24.883Z,3.03
2023-10-08T11:03:54.167Z,3.42
2023-10-08T11:06:24.553Z,2.80
2023-10-08T11:08:53.644Z,3.05
2023-10-08T11:11:27.980Z,3.08
2023-10-08T11:13:57.936Z,3.07
2023-10-08T11:16:26.897Z,3.72
2023-10-08T11:18:59.066Z,3.40
2023-10-08T11:21:27.152Z,2.60
2023-10-08T11:23:57.139Z,3.42
2023-10-08T11:26:33.491Z,3.17
2023-10-08T11:29:04.311Z,3.00
2023-10-08T11:31:35.759Z,3.60
2023-10-08T11:34:09.669Z,2.80
2023-10-08T11:36:49.854Z,2.80
2023-10-08T11:39:23.314Z,2.40
2023-10-08T11:41:57.799Z,3.10
2023-10-08T11:44:31.578Z,3.67
2023-10-08T11:47:06.105Z,2.95
2023-10-08T11:49:37.639Z,3.55
2023-10-08T11:52:06.043Z,3.87
2023-10-08T11:54:35.052Z,3.45
2023-10-08T11:57:04.134Z,3.25
2023-10-08T11:59:33.319Z,3.10
2023-10-08T12:02:02.338Z,2.83
2023-10-08T12:04:30.971Z,2.67
2023-10-08T12:07:03.033Z,3.33
2023-10-08T12:09:30.607Z,3.33
2023-10-08T12:11:58.726Z,2.88
2023-10-08T12:14:31.518Z,3.00
2023-10-08T12:17:01.331Z,2.80
2023-10-08T12:19:33.469Z,3.67
2023-10-08T12:22:03.773Z,2.70
2023-10-08T12:24:31.699Z,3.42
2023-10-08T12:26:59.821Z,3.40
2023-10-08T12:29:28.184Z,2.70
2023-10-08T12:31:55.786Z,3.70
2023-10-08T12:34:24.145Z,2.97
2023-10-08T12:36:53.104Z,2.72
2023-10-08T12:39:26.404Z,5.32
2023-10-08T12:41:54.676Z,4.07
2023-10-08T12:44:22.860Z,4.85
2023-10-08T12:46:50.526Z,2.90
2023-10-08T12:49:18.243Z,3.47
2023-10-08T12:51:46.721Z,2.83
2023-10-08T12:54:23.057Z,2.80
2023-10-08T12:56:56.113Z,3.00
2023-10-08T12:59:25.604Z,2.75
2023-10-08T13:01:55.770Z,3.30
2023-10-08T13:04:28.500Z,3.42
2023-10-08T13:06:58.300Z,3.83
2023-10-08T13:09:28.568Z,2.97
2023-10-08T13:11:57.141Z,3.65
2023-10-08T13:14:24.727Z,3.22
2023-10-08T13:16:55.155Z,4.00
2023-10-08T13:19:24.807Z,2.90
2023-10-08T13:21:53.747Z,2.70
2023-10-08T13:24:24.969Z,3.20
2023-10-08T13:26:54.182Z,2.83
2023-10-08T13:29:21.845Z,3.60
2023-10-08T13:31:49.686Z,4.23
2023-10-08T13:34:17.802Z,3.35
2023-10-08T13:36:48.298Z,3.60
2023-10-08T13:39:19.999Z,3.00
2023-10-08T13:41:49.084Z,3.72
2023-10-08T13:44:20.038Z,3.70
2023-10-08T13:46:53.429Z,3.10
2023-10-08T13:49:21.223Z,3.47
2023-10-08T13:51:56.981Z,4.88
2023-10-08T13:54:33.367Z,3.75
2023-10-08T13:57:06.513Z,4.57
2023-10-08T13:59:35.906Z,6.90
2023-10-08T14:02:17.637Z,4.97
2023-10-08T14:04:46.139Z,3.58
2023-10-08T14:07:17.957Z,3.95
2023-10-08T14:09:46.681Z,4.00
2023-10-08T14:12:15.763Z,3.72
2023-10-08T14:14:46.617Z,2.70
2023-10-08T14:17:16.971Z,3.25
2023-10-08T14:20:00.608Z,3.78
2023-10-08T14:22:28.370Z,3.40
2023-10-08T14:25:00.733Z,4.63
2023-10-08T14:27:33.329Z,3.97
2023-10-08T14:30:06.107Z,3.72
2023-10-08T14:32:34.516Z,4.40
2023-10-08T14:35:20.005Z,4.83
2023-10-08T14:38:04.864Z,3.40
2023-10-08T14:40:49.735Z,3.63
2023-10-08T14:43:21.220Z,4.50
2023-10-08T14:45:50.340Z,4.43
2023-10-08T14:48:18.506Z,4.57
2023-10-08T14:50:47.281Z,4.82
2023-10-08T14:53:15.363Z,3.88
2023-10-08T14:55:43.316Z,3.28
2023-10-08T14:58:11.649Z,3.40
2023-10-08T15:00:40.457Z,5.47
2023-10-08T15:03:10.414Z,3.25
2023-10-08T15:05:38.974Z,3.50
2023-10-08T15:08:11.380Z,3.13
2023-10-08T15:10:39.544Z,3.78
2023-10-08T15:13:07.664Z,4.53
2023-10-08T15:15:35.855Z,4.95
2023-10-08T15:18:03.942Z,4.70
2023-10-08T15:20:34.814Z,3.00
2023-10-08T15:23:03.058Z,2.90
2023-10-08T15:25:31.023Z,3.37
2023-10-08T15:27:58.686Z,3.50
2023-10-08T15:30:27.300Z,2.85
2023-10-08T15:32:55.733Z,4.80
2023-10-08T15:35:25.434Z,3.67
2023-10-08T15:37:55.888Z,3.17
2023-10-08T15:40:24.136Z,3.95
2023-10-08T15:42:53.229Z,4.65
2023-10-08T15:45:21.179Z,5.40
2023-10-08T15:47:50.222Z,3.92
2023-10-08T15:50:21.533Z,4.47
2023-10-08T15:52:49.876Z,4.60
2023-10-08T15:55:20.297Z,5.55
2023-10-08T15:57:48.215Z,4.03
2023-10-08T16:00:16.338Z,5.40
2023-10-08T16:02:46.012Z,4.73
2023-10-08T16:05:16.020Z,3.75
2023-10-08T16:07:43.809Z,5.00
2023-10-08T16:10:12.123Z,5.65
2023-10-08T16:12:41.093Z,5.80
2023-10-08T16:15:09.465Z,4.30
2023-10-08T16:17:39.330Z,5.47
2023-10-08T16:20:15.565Z,5.13
2023-10-08T16:22:45.348Z,5.55
2023-10-08T16:25:16.535Z,3.60
2023-10-08T16:27:50.259Z,8.63
2023-10-08T16:30:18.717Z,5.00
2023-10-08T16:32:47.157Z,4.60
2023-10-08T16:35:16.342Z,4.43
2023-10-08T16:37:44.394Z,4.20
2023-10-08T16:40:12.628Z,5.70
2023-10-08T16:42:40.230Z,6.03
2023-10-08T16:45:11.253Z,5.25
2023-10-08T16:47:39.171Z,4.93
2023-10-08T16:50:07.560Z,4.70
2023-10-08T16:52:35.304Z,5.37
2023-10-08T16:55:04.323Z,5.43
2023-10-08T16:57:32.115Z,4.40
2023-10-08T17:00:00.024Z,4.80
2023-10-08T17:02:29.154Z,3.78
2023-10-08T17:04:56.891Z,3.73
2023-10-08T17:07:25.365Z,4.20
2023-10-08T17:09:53.384Z,3.42
2023-10-08T17:12:21.126Z,3.60
2023-10-08T17:14:48.805Z,4.13
2023-10-08T17:17:16.434Z,4.37
2023-10-08T17:19:45.399Z,5.43
2023-10-08T17:22:13.020Z,5.13
2023-10-08T17:24:42.836Z,4.25
2023-10-08T17:27:15.299Z,4.25
2023-10-08T17:29:43.406Z,4.33
2023-10-08T17:32:11.039Z,4.82
2023-10-08T17:34:38.721Z,6.25
2023-10-08T17:37:07.754Z,7.38
2023-10-08T17:39:35.310Z,4.70
2023-10-08T17:42:02.946Z,6.80
2023-10-08T17:44:31.418Z,5.97
2023-10-08T17:46:59.098Z,5.45
2023-10-08T17:49:27.473Z,4.55
2023-10-08T17:51:55.041Z,6.85
2023-10-08T17:54:24.522Z,11.57
2023-10-08T17:56:52.539Z,12.20
2023-10-08T17:59:23.931Z,8.38
2023-10-08T18:01:51.647Z,8.15
2023-10-08T18:04:23.101Z,7.30
2023-10-08T18:06:51.101Z,9.33
2023-10-08T18:09:21.534Z,8.80
2023-10-08T18:11:50.846Z,9.02
2023-10-08T18:14:20.617Z,6.07
2023-10-08T18:16:48.325Z,7.30
2023-10-08T18:19:16.687Z,6.27
2023-10-08T18:21:45.297Z,5.47
2023-10-08T18:24:16.028Z,5.75
2023-10-08T18:26:43.964Z,4.30
2023-10-08T18:29:14.801Z,4.65
2023-10-08T18:31:43.005Z,5.17
2023-10-08T18:34:10.604Z,7.28
2023-10-08T18:36:39.629Z,4.88
2023-10-08T18:39:14.559Z,4.88
2023-10-08T18:41:43.860Z,5.53
2023-10-08T18:44:14.568Z,4.90
2023-10-08T18:46:42.373Z,4.90
2023-10-08T18:49:11.664Z,4.30
2023-10-08T18:51:43.574Z,4.22
2023-10-08T18:54:13.259Z,5.57
2023-10-08T18:56:41.444Z,4.87
2023-10-08T18:59:09.995Z,5.00
2023-10-08T19:01:41.407Z,5.22
2023-10-08T19:04:09.366Z,5.38
2023-10-08T19:06:37.132Z,4.00
2023-10-08T19:09:05.597Z,6.47
2023-10-08T19:11:34.541Z,4.68
2023-10-08T19:14:04.785Z,4.25
2023-10-08T19:16:32.816Z,5.05
2023-10-08T19:19:02.573Z,5.28
2023-10-08T19:21:30.551Z,5.50
2023-10-08T19:23:59.609Z,5.80
2023-10-08T19:26:28.324Z,6.38
2023-10-08T19:28:55.972Z,7.50
2023-10-08T19:31:23.596Z,5.70
2023-10-08T19:33:53.248Z,6.97
2023-10-08T19:36:23.299Z,5.57
2023-10-08T19:38:51.238Z,5.68
2023-10-08T19:41:22.288Z,5.32
2023-10-08T19:43:51.148Z,5.18
2023-10-08T19:46:23.903Z,5.87
2023-10-08T19:48:52.573Z,5.07
2023-10-08T19:51:20.416Z,5.65
2023-10-08T19:53:51.222Z,7.05
2023-10-08T19:56:20.516Z,8.93
2023-10-08T19:58:48.617Z,10.70
2023-10-08T20:01:18.169Z,8.93
2023-10-08T20:03:47.455Z,11.35
2023-10-08T20:06:15.430Z,10.60
2023-10-08T20:08:46.329Z,9.35
2023-10-08T20:11:15.685Z,8.07
2023-10-08T20:13:45.444Z,8.32
2023-10-08T20:16:13.592Z,5.50
2023-10-08T20:18:42.094Z,5.25
2023-10-08T20:21:09.970Z,4.53
2023-10-08T20:23:39.736Z,4.67
2023-10-08T20:26:11.394Z,5.63
2023-10-08T20:28:40.392Z,7.68
2023-10-08T20:31:13.093Z,5.25
2023-10-08T20:33:41.405Z,5.78
2023-10-08T20:36:09.914Z,5.83
2023-10-08T20:38:37.599Z,4.57
2023-10-08T20:41:07.615Z,5.95
2023-10-08T20:43:35.574Z,4.70
2023-10-08T20:46:05.299Z,4.60
2023-10-08T20:48:33.217Z,5.00
2023-10-08T20:51:01.153Z,4.72
2023-10-08T20:53:28.832Z,4.55
2023-10-08T20:55:56.621Z,3.95
2023-10-08T20:58:27.365Z,4.47
2023-10-08T21:00:59.824Z,4.63
2023-10-08T21:03:29.469Z,4.53
2023-10-08T21:05:58.164Z,6.45
2023-10-08T21:08:26.316Z,5.07
2023-10-08T21:13:25.390Z,5.40
2023-10-08T21:15:53.527Z,3.85
2023-10-08T21:18:21.510Z,4.13
2023-10-08T21:20:50.829Z,4.85
2023-10-08T21:23:18.479Z,4.45
2023-10-08T21:25:47.196Z,5.33
2023-10-08T21:28:15.214Z,4.53
2023-10-08T21:30:42.944Z,4.50
2023-10-08T21:33:11.139Z,4.45
2023-10-08T21:35:39.736Z,4.45
2023-10-08T21:38:11.121Z,4.47
2023-10-08T21:40:39.096Z,3.85
2023-10-08T21:43:08.521Z,4.72
2023-10-08T21:45:36.989Z,5.00
2023-10-08T21:48:05.032Z,4.63
2023-10-08T21:50:32.765Z,4.63
2023-10-08T21:53:01.198Z,5.22
2023-10-08T21:55:30.996Z,4.82
2023-10-08T21:57:58.626Z,4.68
2023-10-08T22:00:47.166Z,4.38
2023-10-08T22:03:16.400Z,3.40
2023-10-08T22:05:45.395Z,4.63
2023-10-08T22:08:13.928Z,3.55
2023-10-08T22:10:44.035Z,4.93
2023-10-08T22:13:13.792Z,3.90
2023-10-08T22:15:47.695Z,4.90
2023-10-08T22:18:26.202Z,6.75
2023-10-08T22:20:54.188Z,5.43
2023-10-08T22:23:26.474Z,5.20
2023-10-08T22:25:56.360Z,4.40
2023-10-08T22:28:26.182Z,5.10
2023-10-08T22:30:55.650Z,3.83
2023-10-08T22:33:27.182Z,6.35
2023-10-08T22:35:58.311Z,4.50
2023-10-08T22:38:30.723Z,6.05
2023-10-08T22:41:17.916Z,4.27
2023-10-08T22:43:45.645Z,5.22
2023-10-08T22:46:21.993Z,5.40
2023-10-08T22:48:51.375Z,5.70
2023-10-08T22:51:24.390Z,5.50
2023-10-08T22:53:52.452Z,5.50
2023-10-08T22:56:22.851Z,5.35
2023-10-08T22:58:50.895Z,5.80
2023-10-08T23:01:20.185Z,5.70
2023-10-08T23:03:51.594Z,5.40
2023-10-08T23:06:20.669Z,5.80
2023-10-08T23:08:48.934Z,6.75
2023-10-08T23:11:16.881Z,4.82
2023-10-08T23:13:47.701Z,5.38
2023-10-08T23:16:16.787Z,4.90
2023-10-08T23:18:46.593Z,5.53
2023-10-08T23:21:16.966Z,5.38
2023-10-08T23:23:45.417Z,5.13
2023-10-08T23:26:14.713Z,4.65
2023-10-08T23:28:42.348Z,4.82
2023-10-08T23:31:11.901Z,5.10
2023-10-08T23:33:41.259Z,4.55
2023-10-08T23:36:10.680Z,4.88
2023-10-08T23:38:39.585Z,4.00
2023-10-08T23:41:16.715Z,4.90
2023-10-08T23:43:54.432Z,4.23
2023-10-08T23:46:33.382Z,6.43
2023-10-08T23:49:06.797Z,4.18
2023-10-08T23:51:38.210Z,4.25
2023-10-08T23:54:13.499Z,4.72
2023-10-08T23:56:46.129Z,5.00
2023-10-08T23:59:18.054Z,4.85
